Airfield :
LOGIN :

Register | Disclaimer

   EN    FR    IT 

 










Legend :    VFR   Marginal VFR   IFR   Intensive IFR   Very Intensive IFR
Visi :
Ceiling :
>= 8 km
>= 3000ft
5 to 8 km
1000 to 3000 ft
1500m to 5 km
500 to 1000 ft
800 to 1500m
200 to 500 ft
< 800m
< 200 ft
Symbols :   Thunderstorms  Fog  Heavy snow  Heavy precipitations  Wind > 20 kt
SIGMETs :     Misc.  Thunderstorms  Icing  Turbulence  Mountain Waves  Volcanic Ashes






- Airport Elevation : 46 ft
- IATA code : SNN


EINN - Shannon

CURRENT METAR :
  • 170430Z 28004KT 9999 SCT017 04/03 Q1012 NOSIG

EXPIRED METARs :
  • 170400Z 29002KT 6000 -DZ BKN010 04/04 Q1012 TEMPO 3000
  • 170330Z 24003KT 6000 BKN015 04/03 Q1012 TEMPO 3000
  • 170300Z 00000KT 6000 BKN020 04/03 Q1012 TEMPO 3000
  • 170230Z 07002KT 6000 BKN022 03/03 Q1012 TEMPO 3000
  • 170200Z VRB01KT 6000 -DZ BKN023 03/03 Q1012 TEMPO 3000
  • 170130Z VRB02KT 3000 BR BKN029 03/03 Q1012 TEMPO 7000

TAF TAF EINN
Valid from the 17 at 00:00 until the 18 at 00:00 UTC


162300Z 1700/1724 VRB03KT 3000 BR SCT040
TEMPO 1700/1704 8000 NSW
BECMG 1704/1707 9999 NSW
BECMG 1709/1711 35010KT
TEMPO 1721/1724 3000 BR



MET'MAP, your aeronautical weather chart ! - Copyright ORBIFLY December 2007 - Disclaimer

ORBIFLY MET'MAP TEAM :

Programming & Development : Alexandra Zaïnal
Concept & Development : Baudouin d'Aumeries
Co-Development & Prog : Marc-Olivier Méhu
Technical & hardware support : Manuel Goepfert

Contact : metmap@orbifly.com




SOURCES & CREDITS :

   NOAA